Time;durP1;ratioP1;P1;durP2;ratioP2;P2;SDS_P1;SDS_P2;PMS_P1;PMS_P2;Temp;Humidity;BMP_temperature;BMP_pressure;BME280_temperature;BME280_humidity;BME280_pressure;Samples;Min_cycle;Max_cycle;Signal;HPM_P1;HPM_P2
2021/10/07 00:01:34;;;;;;;;;;;7.30;45.60;;;;;;4329024;33;19997;-39
2021/10/07 00:04:01;;;;;;;;;;;7.30;45.70;;;;;;4329313;33;20435;-37
2021/10/07 00:06:27;;;;;;;;;;;7.20;45.50;;;;;;4344684;32;19959;-37
2021/10/07 00:08:53;;;;;;;;;;;7.20;45.40;;;;;;4361156;32;20395;-37
2021/10/07 00:11:19;;;;;;;;;;;7.20;45.30;;;;;;4361244;32;19986;-37
2021/10/07 00:13:46;;;;;;;;;;;7.20;45.30;;;;;;4360923;32;19999;-37
2021/10/07 00:16:12;;;;;;;;;;;7.20;45.20;;;;;;4360772;32;20488;-38
2021/10/07 00:18:40;;;;;;;;;;;7.20;45.00;;;;;;4360918;32;19975;-38
2021/10/07 00:21:07;;;;;;;;;;;7.10;45.00;;;;;;4360931;32;19970;-38
2021/10/07 00:23:39;;;;;;;;;;;7.10;45.00;;;;;;4361313;32;19977;-37
2021/10/07 00:26:06;;;;;;;;;;;7.10;45.00;;;;;;4360941;32;20569;-38
2021/10/07 00:28:33;;;;;;;;;;;7.00;44.80;;;;;;4360813;32;20513;-36
2021/10/07 00:31:02;;;;;;;;;;;7.00;44.90;;;;;;4361345;32;19959;-38
2021/10/07 00:33:43;;;;;;;;;;;6.90;44.90;;;;;;4361139;32;19982;-37
2021/10/07 00:36:35;;;;;;;;;;;6.90;45.10;;;;;;4360747;32;19974;-37
2021/10/07 00:39:03;;;;;;;;;;;6.80;45.90;;;;;;4360968;32;20457;-38
2021/10/07 00:41:30;;;;;;;;;;;6.70;46.30;;;;;;4360882;32;20188;-38
2021/10/07 00:44:02;;;;;;;;;;;6.70;46.60;;;;;;4360743;32;19963;-38
2021/10/07 00:46:28;;;;;;;;;;;6.70;47.10;;;;;;4368517;32;19958;-37
2021/10/07 00:48:54;;;;;;;;;;;6.70;47.70;;;;;;4375563;32;19970;-38
2021/10/07 00:51:21;;;;;;;;;;;6.60;47.90;;;;;;4375595;32;19970;-37
2021/10/07 00:53:47;;;;;;;;;;;6.60;48.40;;;;;;4375845;32;19958;-37
2021/10/07 00:56:18;;;;;;;;;;;6.60;49.10;;;;;;4361424;32;20362;-37
2021/10/07 00:58:45;;;;;;;;;;;6.60;49.60;;;;;;4362111;32;19962;-37
2021/10/07 01:01:11;;;;;;;;;;;6.60;50.20;;;;;;4375632;32;19964;-36
2021/10/07 01:03:37;;;;;;;;;;;6.50;50.40;;;;;;4375732;32;19970;-37
2021/10/07 01:06:04;;;;;;;;;;;6.50;51.00;;;;;;4375674;32;20053;-38
2021/10/07 01:08:30;;;;;;;;;;;6.60;50.70;;;;;;4375536;32;20041;-38
2021/10/07 01:10:56;;;;;;;;;;;6.60;50.90;;;;;;4361503;32;19958;-38
2021/10/07 01:13:22;;;;;;;;;;;6.60;50.90;;;;;;4361593;32;19973;-37
2021/10/07 01:15:48;;;;;;;;;;;6.60;50.70;;;;;;4375458;32;19975;-37
2021/10/07 01:18:14;;;;;;;;;;;6.60;50.30;;;;;;4374795;32;20053;-38
2021/10/07 01:20:41;;;;;;;;;;;6.70;49.80;;;;;;4375072;32;19968;-37
2021/10/07 01:23:08;;;;;;;;;;;6.70;49.50;;;;;;4375329;32;19973;-37
2021/10/07 01:25:34;;;;;;;;;;;6.70;49.20;;;;;;4361157;32;19966;-38
2021/10/07 01:28:00;;;;;;;;;;;6.70;48.90;;;;;;4374791;32;20401;-38
2021/10/07 01:30:27;;;;;;;;;;;6.80;48.80;;;;;;4360823;32;20399;-38
2021/10/07 01:32:56;;;;;;;;;;;6.80;48.50;;;;;;4375008;32;20065;-38
2021/10/07 01:35:23;;;;;;;;;;;6.80;48.50;;;;;;4374990;32;20082;-37
2021/10/07 01:37:49;;;;;;;;;;;6.70;48.60;;;;;;4374800;32;20415;-37
2021/10/07 01:40:15;;;;;;;;;;;6.70;48.70;;;;;;4374474;32;19961;-37
2021/10/07 01:42:44;;;;;;;;;;;6.70;48.90;;;;;;4374739;32;19977;-37
2021/10/07 01:45:11;;;;;;;;;;;6.70;49.30;;;;;;4374607;32;20038;-37
2021/10/07 01:47:37;;;;;;;;;;;6.60;49.40;;;;;;4360126;32;19970;-37
2021/10/07 01:50:04;;;;;;;;;;;6.60;49.40;;;;;;4346627;32;20049;-38
2021/10/07 01:52:30;;;;;;;;;;;6.60;49.30;;;;;;4360018;32;20014;-39
2021/10/07 01:54:57;;;;;;;;;;;6.60;49.80;;;;;;4360221;32;20488;-38
2021/10/07 01:57:23;;;;;;;;;;;6.50;51.10;;;;;;4360317;32;20062;-38
2021/10/07 01:59:49;;;;;;;;;;;6.50;51.50;;;;;;4360477;32;20040;-38
2021/10/07 02:02:15;;;;;;;;;;;6.50;51.30;;;;;;4359915;32;20075;-37
2021/10/07 02:04:41;;;;;;;;;;;6.50;51.50;;;;;;4359525;32;19986;-37
2021/10/07 02:07:08;;;;;;;;;;;6.50;51.60;;;;;;4358542;32;20057;-37
2021/10/07 02:09:34;;;;;;;;;;;6.50;51.80;;;;;;4359787;32;19966;-38
2021/10/07 02:12:00;;;;;;;;;;;6.50;52.20;;;;;;4359555;32;20048;-37
2021/10/07 02:14:26;;;;;;;;;;;6.50;52.40;;;;;;4359431;32;19978;-37
2021/10/07 02:16:52;;;;;;;;;;;6.50;52.40;;;;;;4359180;32;19971;-37
2021/10/07 02:19:19;;;;;;;;;;;6.50;52.90;;;;;;4359324;32;20049;-37
2021/10/07 02:21:45;;;;;;;;;;;6.50;53.00;;;;;;4359529;32;19970;-39
2021/10/07 02:24:11;;;;;;;;;;;6.50;52.80;;;;;;4359581;32;20061;-37
2021/10/07 02:26:38;;;;;;;;;;;6.60;52.60;;;;;;4359308;32;20107;-37
2021/10/07 02:29:05;;;;;;;;;;;6.60;52.70;;;;;;4345718;32;19978;-38
2021/10/07 02:31:31;;;;;;;;;;;6.60;52.60;;;;;;4359166;32;20056;-39
2021/10/07 02:33:57;;;;;;;;;;;6.60;52.50;;;;;;4359537;32;20110;-38
2021/10/07 02:36:23;;;;;;;;;;;6.60;52.40;;;;;;4359092;32;19981;-37
2021/10/07 02:38:50;;;;;;;;;;;6.70;52.40;;;;;;4358629;32;20374;-38
2021/10/07 02:41:16;;;;;;;;;;;6.70;52.30;;;;;;4359395;32;19962;-38
2021/10/07 02:43:42;;;;;;;;;;;6.70;52.30;;;;;;4359100;32;19998;-37
2021/10/07 02:46:09;;;;;;;;;;;6.70;52.10;;;;;;4364984;32;19978;-37
2021/10/07 02:48:35;;;;;;;;;;;6.70;52.00;;;;;;4373804;32;19970;-38
2021/10/07 02:51:02;;;;;;;;;;;6.70;52.00;;;;;;4373700;32;19981;-39
2021/10/07 02:53:31;;;;;;;;;;;6.70;51.80;;;;;;4373848;32;19985;-37
2021/10/07 02:55:58;;;;;;;;;;;6.70;51.50;;;;;;4373528;32;19970;-38
2021/10/07 02:58:24;;;;;;;;;;;6.70;51.30;;;;;;4373601;32;19973;-38
2021/10/07 03:00:50;;;;;;;;;;;6.70;51.20;;;;;;4373690;32;19970;-38
2021/10/07 03:03:17;;;;;;;;;;;6.70;51.00;;;;;;4373469;32;19973;-38
2021/10/07 03:05:43;;;;;;;;;;;6.70;50.80;;;;;;4373671;32;19969;-38
2021/10/07 03:08:09;;;;;;;;;;;6.60;50.80;;;;;;4374029;32;19970;-37
2021/10/07 03:10:35;;;;;;;;;;;6.60;50.70;;;;;;4373439;32;19978;-39
2021/10/07 03:13:01;;;;;;;;;;;6.60;50.60;;;;;;4373320;32;19999;-37
2021/10/07 03:15:28;;;;;;;;;;;6.60;50.60;;;;;;4373509;32;19978;-38
2021/10/07 03:17:54;;;;;;;;;;;6.60;50.60;;;;;;4373362;32;19966;-38
2021/10/07 03:20:20;;;;;;;;;;;6.60;50.60;;;;;;4373615;32;20034;-37
2021/10/07 03:22:46;;;;;;;;;;;6.60;50.70;;;;;;4373293;32;19998;-38
2021/10/07 03:25:13;;;;;;;;;;;6.60;50.80;;;;;;4373194;32;19985;-36
2021/10/07 03:27:39;;;;;;;;;;;6.60;51.00;;;;;;4373975;32;19974;-39
2021/10/07 03:30:06;;;;;;;;;;;6.60;51.70;;;;;;4373385;32;19962;-37
2021/10/07 03:32:32;;;;;;;;;;;6.70;52.10;;;;;;4373714;32;20000;-36
2021/10/07 03:34:58;;;;;;;;;;;6.70;52.40;;;;;;4373352;32;19982;-38
2021/10/07 03:37:24;;;;;;;;;;;6.80;52.60;;;;;;4373750;32;20058;-37
2021/10/07 03:39:50;;;;;;;;;;;7.00;52.80;;;;;;4373545;32;19989;-37
2021/10/07 03:42:17;;;;;;;;;;;7.10;52.60;;;;;;4373378;32;19980;-38
2021/10/07 03:44:43;;;;;;;;;;;7.30;52.70;;;;;;4373609;32;19977;-38
2021/10/07 03:47:09;;;;;;;;;;;7.50;52.90;;;;;;4360932;32;20062;-39
2021/10/07 03:49:35;;;;;;;;;;;7.70;52.90;;;;;;4344455;32;19974;-38
2021/10/07 03:52:02;;;;;;;;;;;7.90;52.90;;;;;;4358658;32;19969;-38
2021/10/07 03:54:28;;;;;;;;;;;8.10;52.70;;;;;;4358393;32;19963;-38
2021/10/07 03:56:54;;;;;;;;;;;8.30;52.60;;;;;;4344574;32;19986;-37
2021/10/07 03:59:20;;;;;;;;;;;8.40;52.30;;;;;;4358336;32;19978;-37
2021/10/07 04:01:46;;;;;;;;;;;8.60;52.10;;;;;;4358138;32;19974;-39
2021/10/07 04:04:13;;;;;;;;;;;8.70;51.70;;;;;;4358308;32;20390;-38
2021/10/07 04:06:39;;;;;;;;;;;8.90;51.50;;;;;;4358101;32;20407;-37
2021/10/07 04:09:05;;;;;;;;;;;9.00;51.30;;;;;;4358036;32;20453;-38
2021/10/07 04:11:31;;;;;;;;;;;9.10;51.00;;;;;;4344403;32;19978;-37
2021/10/07 04:13:57;;;;;;;;;;;9.30;50.70;;;;;;4357912;32;19962;-38
2021/10/07 04:16:24;;;;;;;;;;;9.40;50.50;;;;;;4357920;32;20049;-38
2021/10/07 04:18:50;;;;;;;;;;;9.50;50.20;;;;;;4358046;32;20053;-37
2021/10/07 04:21:17;;;;;;;;;;;9.60;50.00;;;;;;4358213;32;19971;-36
2021/10/07 04:23:44;;;;;;;;;;;9.80;49.80;;;;;;4358382;32;20067;-38
2021/10/07 04:26:10;;;;;;;;;;;9.90;49.60;;;;;;4357998;32;20521;-37
2021/10/07 04:28:36;;;;;;;;;;;10.10;49.50;;;;;;4357926;32;20069;-38
2021/10/07 04:31:02;;;;;;;;;;;10.20;49.30;;;;;;4358741;32;19982;-38
2021/10/07 04:33:29;;;;;;;;;;;10.40;49.10;;;;;;4360827;32;19973;-39
2021/10/07 04:35:55;;;;;;;;;;;10.60;49.10;;;;;;4360807;32;20123;-37
2021/10/07 04:38:21;;;;;;;;;;;10.90;49.00;;;;;;4360317;32;20395;-38
2021/10/07 04:40:47;;;;;;;;;;;11.20;48.90;;;;;;4360881;32;20469;-38
2021/10/07 04:43:14;;;;;;;;;;;11.50;49.20;;;;;;4361022;32;20425;-37
2021/10/07 04:45:40;;;;;;;;;;;11.90;47.90;;;;;;4346762;32;19989;-38
2021/10/07 04:48:06;;;;;;;;;;;12.20;47.40;;;;;;4360396;32;20389;-37
2021/10/07 04:50:32;;;;;;;;;;;12.60;47.10;;;;;;4360254;32;20034;-38
2021/10/07 04:52:59;;;;;;;;;;;13.10;46.80;;;;;;4360392;32;20411;-38
2021/10/07 04:55:25;;;;;;;;;;;13.50;46.10;;;;;;4360850;32;19970;-38
2021/10/07 04:57:51;;;;;;;;;;;14.00;45.50;;;;;;4359892;32;20560;-38
2021/10/07 05:00:17;;;;;;;;;;;14.50;45.00;;;;;;4360061;32;20556;-38
2021/10/07 05:02:44;;;;;;;;;;;14.90;44.20;;;;;;4361030;32;20128;-37
2021/10/07 05:05:10;;;;;;;;;;;15.40;43.50;;;;;;4360313;32;19962;-38
2021/10/07 05:07:39;;;;;;;;;;;15.80;42.40;;;;;;4359969;32;19995;-38
2021/10/07 05:10:11;;;;;;;;;;;16.20;40.30;;;;;;4360187;32;20000;-38
2021/10/07 05:12:39;;;;;;;;;;;16.40;39.60;;;;;;4360201;32;19974;-38
2021/10/07 05:15:06;;;;;;;;;;;16.60;39.10;;;;;;4346316;32;20415;-37
2021/10/07 05:17:32;;;;;;;;;;;16.90;39.10;;;;;;4359868;32;19958;-37
2021/10/07 05:20:02;;;;;;;;;;;17.20;38.30;;;;;;4360390;32;19982;-38
2021/10/07 05:22:28;;;;;;;;;;;17.70;38.40;;;;;;4346327;32;19981;-38
2021/10/07 05:24:54;;;;;;;;;;;18.10;37.60;;;;;;4359896;32;19978;-38
2021/10/07 05:27:20;;;;;;;;;;;18.30;35.10;;;;;;4345781;32;20391;-37
2021/10/07 05:29:46;;;;;;;;;;;18.50;34.90;;;;;;4359975;32;19970;-37
2021/10/07 05:32:12;;;;;;;;;;;18.80;35.30;;;;;;4359642;32;19974;-38
2021/10/07 05:34:39;;;;;;;;;;;19.10;34.80;;;;;;4359620;32;19977;-37
2021/10/07 05:37:05;;;;;;;;;;;19.40;32.40;;;;;;4359605;32;20433;-37
2021/10/07 05:39:31;;;;;;;;;;;19.50;30.70;;;;;;4346001;32;20422;-38
2021/10/07 05:41:57;;;;;;;;;;;19.60;31.50;;;;;;4332997;32;19996;-39
2021/10/07 05:44:23;;;;;;;;;;;19.70;30.50;;;;;;4359606;32;20450;-37
2021/10/07 05:46:49;;;;;;;;;;;19.70;30.10;;;;;;4360060;32;19962;-38
2021/10/07 05:49:16;;;;;;;;;;;19.80;30.40;;;;;;4359708;32;19962;-38
2021/10/07 05:51:42;;;;;;;;;;;19.90;30.30;;;;;;4359877;32;19961;-38
2021/10/07 05:54:08;;;;;;;;;;;20.20;29.80;;;;;;4359641;32;19974;-37
2021/10/07 05:56:34;;;;;;;;;;;20.20;28.90;;;;;;4359583;32;20447;-38
2021/10/07 05:59:01;;;;;;;;;;;20.20;29.00;;;;;;4359313;32;20464;-38
2021/10/07 06:01:27;;;;;;;;;;;20.20;28.80;;;;;;4359669;32;19978;-39
2021/10/07 06:03:53;;;;;;;;;;;20.10;28.90;;;;;;4359173;32;20414;-38
2021/10/07 06:06:19;;;;;;;;;;;20.10;28.70;;;;;;4359801;32;20009;-37
2021/10/07 06:08:46;;;;;;;;;;;20.20;29.00;;;;;;4359224;32;19985;-38
2021/10/07 06:11:12;;;;;;;;;;;20.30;29.30;;;;;;4359211;32;20492;-39
2021/10/07 06:13:38;;;;;;;;;;;20.60;29.30;;;;;;4358752;32;20553;-39
2021/10/07 06:16:04;;;;;;;;;;;20.80;28.10;;;;;;4358923;32;19978;-38
2021/10/07 06:18:31;;;;;;;;;;;20.80;27.90;;;;;;4359325;32;20445;-38
2021/10/07 06:20:57;;;;;;;;;;;20.80;28.70;;;;;;4358950;32;20398;-38
2021/10/07 06:23:23;;;;;;;;;;;20.70;28.50;;;;;;4359247;32;19972;-39
2021/10/07 06:25:49;;;;;;;;;;;20.70;28.30;;;;;;4358854;32;19958;-38
2021/10/07 06:28:16;;;;;;;;;;;20.70;28.40;;;;;;4326290;33;20503;-38
2021/10/07 06:30:42;;;;;;;;;;;20.80;28.60;;;;;;4327078;33;19963;-39
2021/10/07 06:33:08;;;;;;;;;;;21.00;28.70;;;;;;4326700;33;20416;-38
2021/10/07 06:35:34;;;;;;;;;;;21.10;28.20;;;;;;4326778;33;20077;-39
2021/10/07 06:38:00;;;;;;;;;;;21.00;27.50;;;;;;4326779;33;20133;-38
2021/10/07 06:40:27;;;;;;;;;;;20.80;27.40;;;;;;4326632;33;20063;-38
2021/10/07 06:42:53;;;;;;;;;;;20.80;27.60;;;;;;4326682;33;20074;-38
2021/10/07 06:45:20;;;;;;;;;;;20.70;27.50;;;;;;4327469;33;19986;-38
2021/10/07 06:47:46;;;;;;;;;;;20.70;27.80;;;;;;4340858;33;20050;-38
2021/10/07 06:50:12;;;;;;;;;;;20.70;28.00;;;;;;4341083;33;20005;-39
2021/10/07 06:52:41;;;;;;;;;;;20.90;28.20;;;;;;4340919;32;19967;-38
2021/10/07 06:55:10;;;;;;;;;;;21.00;27.80;;;;;;4340888;33;20038;-38
2021/10/07 06:57:37;;;;;;;;;;;21.10;27.70;;;;;;4340811;33;19966;-38
2021/10/07 07:00:06;;;;;;;;;;;21.10;27.40;;;;;;4340870;33;20736;-38
2021/10/07 07:02:32;;;;;;;;;;;21.10;27.40;;;;;;4341133;33;20441;-39
2021/10/07 07:04:58;;;;;;;;;;;21.10;27.30;;;;;;4328699;33;20099;-39
2021/10/07 07:07:25;;;;;;;;;;;21.10;27.30;;;;;;4341600;33;20058;-38
2021/10/07 07:09:52;;;;;;;;;;;21.10;27.20;;;;;;4341189;33;20418;-38
2021/10/07 07:12:20;;;;;;;;;;;21.10;27.20;;;;;;4341246;33;19979;-40
2021/10/07 07:14:47;;;;;;;;;;;21.10;27.50;;;;;;4340897;33;19974;-39
2021/10/07 07:17:13;;;;;;;;;;;21.20;27.50;;;;;;4340928;33;19966;-38
2021/10/07 07:19:39;;;;;;;;;;;21.30;27.30;;;;;;4341102;33;19963;-39
2021/10/07 07:22:06;;;;;;;;;;;21.30;27.20;;;;;;4341068;33;19980;-39
2021/10/07 07:24:32;;;;;;;;;;;21.30;27.70;;;;;;4341176;33;20069;-38
2021/10/07 07:26:58;;;;;;;;;;;21.30;27.20;;;;;;4340999;33;20001;-38
2021/10/07 07:29:24;;;;;;;;;;;21.40;27.20;;;;;;4341382;33;19970;-37
2021/10/07 07:31:51;;;;;;;;;;;21.50;27.10;;;;;;4329133;33;19966;-40
2021/10/07 07:34:17;;;;;;;;;;;21.40;26.80;;;;;;4311315;33;20003;-39
2021/10/07 07:36:43;;;;;;;;;;;21.40;26.90;;;;;;4335226;33;20427;-39
2021/10/07 07:39:09;;;;;;;;;;;21.30;27.00;;;;;;4340911;33;20374;-38
2021/10/07 07:41:36;;;;;;;;;;;21.30;27.50;;;;;;4340848;33;20434;-38
2021/10/07 07:44:04;;;;;;;;;;;21.40;27.30;;;;;;4329254;33;20057;-38
2021/10/07 07:46:32;;;;;;;;;;;21.70;27.80;;;;;;4348953;32;20047;-37
2021/10/07 07:49:00;;;;;;;;;;;22.10;27.20;;;;;;4356000;32;20510;-39
2021/10/07 07:51:27;;;;;;;;;;;22.50;27.00;;;;;;4355711;32;20012;-38
2021/10/07 07:53:53;;;;;;;;;;;23.00;26.80;;;;;;4356092;32;20038;-39
2021/10/07 07:56:20;;;;;;;;;;;23.40;25.80;;;;;;4343219;32;19977;-39
2021/10/07 07:58:48;;;;;;;;;;;23.60;25.50;;;;;;4355700;32;19967;-39
2021/10/07 08:01:14;;;;;;;;;;;23.50;25.30;;;;;;4356014;32;19989;-39
2021/10/07 08:03:40;;;;;;;;;;;23.60;25.70;;;;;;4355656;32;20441;-39
2021/10/07 08:06:06;;;;;;;;;;;23.80;25.70;;;;;;4358529;32;19967;-40
2021/10/07 08:08:33;;;;;;;;;;;23.80;25.20;;;;;;4361155;32;19963;-40
2021/10/07 08:10:59;;;;;;;;;;;23.70;25.00;;;;;;4361159;32;19982;-40
2021/10/07 08:13:25;;;;;;;;;;;23.50;25.10;;;;;;4361529;32;19959;-40
2021/10/07 08:15:51;;;;;;;;;;;23.20;25.30;;;;;;4360643;32;19954;-39
2021/10/07 08:18:19;;;;;;;;;;;23.00;25.50;;;;;;4360631;32;19973;-39
2021/10/07 08:20:45;;;;;;;;;;;22.80;26.40;;;;;;4361221;32;19965;-40
2021/10/07 08:23:13;;;;;;;;;;;22.70;25.60;;;;;;4361112;32;19985;-39
2021/10/07 08:25:40;;;;;;;;;;;22.70;25.50;;;;;;4360781;32;20018;-39
2021/10/07 08:28:08;;;;;;;;;;;22.60;25.50;;;;;;4359506;32;19970;-40
2021/10/07 08:30:35;;;;;;;;;;;22.70;25.80;;;;;;4360718;32;20636;-39
2021/10/07 08:33:01;;;;;;;;;;;22.90;26.00;;;;;;4359154;32;19967;-39
2021/10/07 08:35:27;;;;;;;;;;;23.00;25.40;;;;;;4360983;32;19977;-40
2021/10/07 08:37:53;;;;;;;;;;;23.10;25.20;;;;;;4360495;32;19985;-40
2021/10/07 08:40:19;;;;;;;;;;;23.10;25.30;;;;;;4359010;32;20010;-38
2021/10/07 08:42:46;;;;;;;;;;;23.00;25.30;;;;;;4360822;32;19963;-40
2021/10/07 08:45:12;;;;;;;;;;;23.00;25.20;;;;;;4360584;32;19977;-39
2021/10/07 08:47:39;;;;;;;;;;;23.00;25.50;;;;;;4375680;32;20355;-39
2021/10/07 08:50:08;;;;;;;;;;;23.20;26.10;;;;;;4375524;32;20030;-39
2021/10/07 08:52:34;;;;;;;;;;;23.50;26.30;;;;;;4375562;32;20446;-40
2021/10/07 08:55:00;;;;;;;;;;;23.90;26.10;;;;;;4375629;32;20417;-39
2021/10/07 08:57:27;;;;;;;;;;;24.20;26.00;;;;;;4375260;32;19966;-38
2021/10/07 08:59:53;;;;;;;;;;;24.40;25.80;;;;;;4375034;32;19962;-40
2021/10/07 09:02:27;;;;;;;;;;;24.50;25.60;;;;;;4375501;32;19966;-40
2021/10/07 09:04:54;;;;;;;;;;;24.80;25.50;;;;;;4375323;32;19996;-39
2021/10/07 09:07:21;;;;;;;;;;;25.00;25.40;;;;;;4375522;32;20055;-38
2021/10/07 09:09:47;;;;;;;;;;;25.10;25.50;;;;;;4361041;32;19977;-39
2021/10/07 09:12:18;;;;;;;;;;;25.00;25.40;;;;;;4361396;32;19958;-38
2021/10/07 09:14:48;;;;;;;;;;;25.00;25.30;;;;;;4375080;32;19981;-38
2021/10/07 09:17:19;;;;;;;;;;;24.90;25.40;;;;;;4374843;32;19965;-38
2021/10/07 09:19:47;;;;;;;;;;;24.80;25.30;;;;;;4375831;32;19978;-38
2021/10/07 09:22:15;;;;;;;;;;;24.50;25.40;;;;;;4375286;32;19970;-38
2021/10/07 09:24:45;;;;;;;;;;;24.10;25.60;;;;;;4374502;32;19990;-39
2021/10/07 09:27:19;;;;;;;;;;;23.70;25.80;;;;;;4361201;32;20428;-39
2021/10/07 09:29:56;;;;;;;;;;;23.20;26.10;;;;;;4374469;32;20364;-39
2021/10/07 09:32:27;;;;;;;;;;;22.80;26.40;;;;;;4374614;32;19961;-39
2021/10/07 09:34:57;;;;;;;;;;;22.50;26.70;;;;;;4374715;32;20021;-40
2021/10/07 09:37:36;;;;;;;;;;;22.20;26.90;;;;;;4375083;32;19986;-40
2021/10/07 09:40:09;;;;;;;;;;;22.00;27.00;;;;;;4361370;32;20077;-39
2021/10/07 09:42:36;;;;;;;;;;;21.80;27.10;;;;;;4374692;32;20017;-40
2021/10/07 09:45:27;;;;;;;;;;;21.60;27.20;;;;;;4375075;32;20421;-39
2021/10/07 09:47:55;;;;;;;;;;;21.70;27.60;;;;;;4347331;32;19963;-39
2021/10/07 09:50:30;;;;;;;;;;;21.60;27.70;;;;;;4359732;32;19967;-40
2021/10/07 09:53:16;;;;;;;;;;;21.50;27.70;;;;;;4359446;32;20624;-39
2021/10/07 09:55:44;;;;;;;;;;;21.30;27.90;;;;;;4359474;32;20149;-39
2021/10/07 09:58:21;;;;;;;;;;;21.00;28.00;;;;;;4359523;32;19973;-40
2021/10/07 10:00:50;;;;;;;;;;;20.80;28.20;;;;;;4359239;32;20481;-39
2021/10/07 10:03:17;;;;;;;;;;;20.60;28.40;;;;;;4359306;32;19978;-39
2021/10/07 10:05:45;;;;;;;;;;;20.50;28.50;;;;;;4359215;32;19973;-40
2021/10/07 10:08:13;;;;;;;;;;;20.50;28.60;;;;;;4359434;32;19978;-39
2021/10/07 10:10:40;;;;;;;;;;;20.60;28.70;;;;;;4358969;32;20406;-39
2021/10/07 10:13:07;;;;;;;;;;;20.60;28.80;;;;;;4359400;32;19973;-39
2021/10/07 10:15:34;;;;;;;;;;;20.50;28.80;;;;;;4359644;32;19989;-39
2021/10/07 10:18:05;;;;;;;;;;;20.60;28.90;;;;;;4358911;32;19970;-40
2021/10/07 10:20:32;;;;;;;;;;;20.80;28.90;;;;;;4359162;32;19962;-39
2021/10/07 10:22:59;;;;;;;;;;;21.10;28.60;;;;;;4345207;32;19963;-39
2021/10/07 10:25:29;;;;;;;;;;;21.20;28.50;;;;;;4359265;32;19971;-40
2021/10/07 10:28:02;;;;;;;;;;;21.20;28.30;;;;;;4358670;32;19970;-42
2021/10/07 10:30:44;;;;;;;;;;;21.20;28.30;;;;;;4359040;32;20392;-39
2021/10/07 10:33:30;;;;;;;;;;;21.10;28.40;;;;;;4358683;32;19977;-40
2021/10/07 10:35:56;;;;;;;;;;;21.30;28.30;;;;;;4358439;32;19978;-40
2021/10/07 10:38:22;;;;;;;;;;;21.40;28.50;;;;;;4345231;32;19970;-39
2021/10/07 10:40:49;;;;;;;;;;;21.40;28.10;;;;;;4358262;32;20438;-39
2021/10/07 10:43:18;;;;;;;;;;;21.20;28.10;;;;;;4358636;32;20056;-39
2021/10/07 10:45:48;;;;;;;;;;;21.10;28.30;;;;;;4361978;32;19978;-39
2021/10/07 10:48:42;;;;;;;;;;;21.00;28.30;;;;;;4373795;32;19972;-39
2021/10/07 10:51:09;;;;;;;;;;;20.90;28.40;;;;;;4373327;32;20383;-40
2021/10/07 10:53:56;;;;;;;;;;;21.00;28.60;;;;;;4373691;32;19980;-39
2021/10/07 10:56:22;;;;;;;;;;;21.00;29.20;;;;;;4360757;32;19963;-38
2021/10/07 10:58:53;;;;;;;;;;;21.00;29.20;;;;;;4372996;32;20005;-39
2021/10/07 11:01:19;;;;;;;;;;;21.00;29.20;;;;;;4373502;32;19958;-38
2021/10/07 11:03:46;;;;;;;;;;;20.90;29.20;;;;;;4373358;32;19978;-39
2021/10/07 11:06:12;;;;;;;;;;;20.80;29.00;;;;;;4373193;32;19977;-39
2021/10/07 11:08:41;;;;;;;;;;;20.80;29.00;;;;;;4373791;32;20049;-39
2021/10/07 11:11:09;;;;;;;;;;;20.70;28.90;;;;;;4373628;32;19962;-38
2021/10/07 11:13:47;;;;;;;;;;;20.60;28.90;;;;;;4373552;32;19984;-39
2021/10/07 11:16:17;;;;;;;;;;;20.70;29.00;;;;;;4359903;32;19981;-39
2021/10/07 11:18:43;;;;;;;;;;;20.70;29.50;;;;;;4373359;32;19970;-39
2021/10/07 11:21:20;;;;;;;;;;;20.70;28.90;;;;;;4359219;32;20057;-40
2021/10/07 11:23:50;;;;;;;;;;;20.80;29.40;;;;;;4373304;32;19985;-39
2021/10/07 11:26:16;;;;;;;;;;;20.80;29.20;;;;;;4373224;32;19982;-40
2021/10/07 11:28:46;;;;;;;;;;;20.70;29.10;;;;;;4372994;32;19972;-38
2021/10/07 11:31:14;;;;;;;;;;;20.80;29.40;;;;;;4373476;32;19978;-39
2021/10/07 11:33:42;;;;;;;;;;;20.80;29.40;;;;;;4373383;32;20055;-40
2021/10/07 11:36:10;;;;;;;;;;;20.80;29.40;;;;;;4373468;32;19974;-38
2021/10/07 11:38:41;;;;;;;;;;;20.80;29.50;;;;;;4373561;32;19966;-39
2021/10/07 11:41:08;;;;;;;;;;;20.80;29.30;;;;;;4375781;32;19966;-39
2021/10/07 11:43:37;;;;;;;;;;;20.80;29.40;;;;;;4329008;33;19994;-39
2021/10/07 11:46:09;;;;;;;;;;;20.80;29.30;;;;;;4329000;33;19979;-39
2021/10/07 11:48:36;;;;;;;;;;;20.70;29.40;;;;;;4329505;33;19986;-39
2021/10/07 11:51:04;;;;;;;;;;;20.70;29.40;;;;;;4329096;33;19974;-39
2021/10/07 11:53:32;;;;;;;;;;;20.60;29.30;;;;;;4328641;33;19986;-38
2021/10/07 11:56:03;;;;;;;;;;;20.70;29.40;;;;;;4328878;33;19974;-39
2021/10/07 11:58:29;;;;;;;;;;;20.80;29.20;;;;;;4328920;33;19978;-39
2021/10/07 12:00:56;;;;;;;;;;;21.00;28.90;;;;;;4329230;33;19978;-39
2021/10/07 12:03:26;;;;;;;;;;;21.00;28.80;;;;;;4328851;33;20439;-39
2021/10/07 12:05:55;;;;;;;;;;;21.00;28.90;;;;;;4328800;33;20448;-39
2021/10/07 12:08:23;;;;;;;;;;;21.10;29.00;;;;;;4328517;33;20387;-39
2021/10/07 12:10:51;;;;;;;;;;;21.10;28.90;;;;;;4328766;33;19983;-39
2021/10/07 12:13:22;;;;;;;;;;;21.20;29.00;;;;;;4329102;33;19975;-40
2021/10/07 12:15:56;;;;;;;;;;;21.30;28.80;;;;;;4343435;33;19993;-41
2021/10/07 12:18:24;;;;;;;;;;;21.30;28.70;;;;;;4343326;33;20000;-39
2021/10/07 12:21:13;;;;;;;;;;;21.40;28.70;;;;;;4331177;33;19975;-39
2021/10/07 12:23:56;;;;;;;;;;;21.30;28.60;;;;;;4343525;33;19982;-39
2021/10/07 12:26:28;;;;;;;;;;;21.40;28.60;;;;;;4343350;33;20446;-39
2021/10/07 12:28:54;;;;;;;;;;;21.60;28.50;;;;;;4343730;33;20056;-38
2021/10/07 12:31:25;;;;;;;;;;;21.70;28.30;;;;;;4355141;32;19966;-39
2021/10/07 12:33:55;;;;;;;;;;;21.90;28.20;;;;;;4360721;32;20001;-38
2021/10/07 12:36:22;;;;;;;;;;;21.90;27.90;;;;;;4360967;32;20052;-38
2021/10/07 12:38:52;;;;;;;;;;;22.00;27.90;;;;;;4360843;32;19988;-39
2021/10/07 12:41:40;;;;;;;;;;;22.00;27.90;;;;;;4360109;32;19978;-39
2021/10/07 12:44:07;;;;;;;;;;;21.90;27.70;;;;;;4349282;32;20005;-39
2021/10/07 12:46:44;;;;;;;;;;;21.80;27.70;;;;;;4360243;32;19974;-39
2021/10/07 12:49:11;;;;;;;;;;;21.80;27.80;;;;;;4347098;32;20492;-39
2021/10/07 12:51:42;;;;;;;;;;;21.90;27.90;;;;;;4345613;32;20351;-39
2021/10/07 12:54:13;;;;;;;;;;;21.90;27.90;;;;;;4347196;32;20034;-38
2021/10/07 12:56:41;;;;;;;;;;;21.90;27.70;;;;;;4360679;32;19963;-39
2021/10/07 12:59:07;;;;;;;;;;;21.90;27.70;;;;;;4360277;32;20426;-38
2021/10/07 13:01:45;;;;;;;;;;;21.80;27.70;;;;;;4360191;32;20075;-39
2021/10/07 13:04:21;;;;;;;;;;;21.70;27.80;;;;;;4360657;32;19985;-39
2021/10/07 13:06:49;;;;;;;;;;;21.70;27.90;;;;;;4360216;32;19983;-38
2021/10/07 13:09:16;;;;;;;;;;;21.70;27.90;;;;;;4360443;32;20046;-39
2021/10/07 13:11:42;;;;;;;;;;;21.50;27.90;;;;;;4360097;32;20047;-39
2021/10/07 13:14:09;;;;;;;;;;;21.50;28.00;;;;;;4359977;32;19969;-39
2021/10/07 13:16:35;;;;;;;;;;;21.50;28.10;;;;;;4359634;32;20412;-39
2021/10/07 13:19:02;;;;;;;;;;;21.50;28.10;;;;;;4360079;32;19985;-40
2021/10/07 13:21:28;;;;;;;;;;;21.40;28.10;;;;;;4360018;32;19965;-37
2021/10/07 13:23:56;;;;;;;;;;;21.40;28.20;;;;;;4359806;32;20399;-39
2021/10/07 13:26:22;;;;;;;;;;;21.30;28.20;;;;;;4359840;32;19982;-39
2021/10/07 13:28:49;;;;;;;;;;;21.10;28.80;;;;;;4360166;32;19995;-38
2021/10/07 13:31:15;;;;;;;;;;;21.00;28.40;;;;;;4360090;32;20065;-39
2021/10/07 13:33:41;;;;;;;;;;;20.80;28.50;;;;;;4359869;32;20399;-39
2021/10/07 13:36:09;;;;;;;;;;;20.70;28.60;;;;;;4359474;32;20444;-39
2021/10/07 13:38:35;;;;;;;;;;;20.50;28.70;;;;;;4333521;32;19978;-40
2021/10/07 13:41:01;;;;;;;;;;;20.40;28.90;;;;;;4359424;32;19986;-39
2021/10/07 13:43:28;;;;;;;;;;;20.30;29.00;;;;;;4360047;32;19966;-39
2021/10/07 13:45:54;;;;;;;;;;;20.30;29.10;;;;;;4364109;32;19974;-39
2021/10/07 13:48:20;;;;;;;;;;;20.20;29.10;;;;;;4360649;32;19966;-40
2021/10/07 13:50:47;;;;;;;;;;;20.20;29.10;;;;;;4374698;32;20127;-39
2021/10/07 13:53:13;;;;;;;;;;;20.10;29.20;;;;;;4375151;32;19977;-39
2021/10/07 13:55:41;;;;;;;;;;;20.10;29.20;;;;;;4374641;32;19961;-39
2021/10/07 13:58:07;;;;;;;;;;;20.00;29.20;;;;;;4360310;32;19981;-38
2021/10/07 14:00:33;;;;;;;;;;;19.90;29.40;;;;;;4374588;32;19970;-38
2021/10/07 14:02:59;;;;;;;;;;;19.80;29.40;;;;;;4374161;32;19973;-39
2021/10/07 14:05:27;;;;;;;;;;;19.60;29.50;;;;;;4374555;32;19966;-39
2021/10/07 14:07:53;;;;;;;;;;;19.50;29.60;;;;;;4374089;32;19970;-39
2021/10/07 14:10:21;;;;;;;;;;;19.50;29.70;;;;;;4374222;32;20452;-39
2021/10/07 14:12:48;;;;;;;;;;;19.60;29.70;;;;;;4374729;32;19978;-39
2021/10/07 14:15:14;;;;;;;;;;;19.70;29.70;;;;;;4374353;32;20479;-38
2021/10/07 14:17:40;;;;;;;;;;;19.70;29.70;;;;;;4374034;32;20387;-39
2021/10/07 14:20:07;;;;;;;;;;;19.80;29.70;;;;;;4374212;32;19973;-39
2021/10/07 14:22:34;;;;;;;;;;;19.70;29.90;;;;;;4374112;32;19962;-40
2021/10/07 14:25:00;;;;;;;;;;;19.60;30.00;;;;;;4374072;32;19974;-40